Latest Coastal Weather Observations for Broome Port

IDW60701

Issued at 7:23 pm WST Wednesday 18 October 2017 (issued every 10 minutes, with the page automatically refreshed every 10 minutes)

About coastal observations | Map of coastal stations | Coastal observations for WA | Marine services | Other Formats
Station Details ID: 003102 Name: BROOME NTC AWS Lat: -18.00 Lon: 122.22 Height: 0.0 m
Data from the previous 72 hours. | See also: Recent months for locations in Western Australia
Date/Time
WST
Temp
°C
Wind Pressure Rain since
9am
mm
Weather Cloud Vis
km
Sea
Height
m
Swell
Dir  Spd
kts
Gust
kts
hPa Trend Height
m
Period
s
Dir
18/07:00pm 27.8 WNW 13 15 1007.0 - - - - - - - - -
18/06:30pm 27.8 WNW 11 15 1006.7 - - - - - - - - -
18/06:00pm 27.8 WNW 12 15 1006.3 - - - - - - - - -
18/05:30pm 27.8 WNW 14 17 1006.0 - - - - - - - - -
18/05:00pm 27.6 WNW 14 18 1005.6 - - - - - - - - -
18/04:30pm 27.8 WNW 16 20 1005.4 - - - - - - - - -
18/04:00pm 27.8 WNW 16 19 1005.3 - - - - - - - - -
18/03:30pm 27.5 WNW 17 20 1005.4 - - - - - - - - -
18/03:00pm 27.6 WNW 17 20 1005.5 - - - - - - - - -
18/02:30pm 27.4 WNW 18 21 1005.5 - - - - - - - - -
18/02:00pm 27.2 WNW 18 20 1005.6 - - - - - - - - -
18/01:30pm 27.3 WNW 16 19 1006.0 - - - - - - - - -
18/01:00pm 27.3 WNW 16 18 1006.3 - - - - - - - - -
18/12:30pm 27.3 WNW 13 16 1006.7 - - - - - - - - -
18/12:00pm 27.4 WNW 14 16 1007.1 - - - - - - - - -
18/11:30am 27.3 WNW 13 16 1007.4 - - - - - - - - -
18/11:00am 27.3 WNW 12 14 1007.8 - - - - - - - - -
18/10:30am 27.3 WNW 11 13 1008.2 - - - - - - - - -
18/10:00am 27.5 W 10 13 1008.5 - - - - - - - - -
18/09:30am 27.7 WSW 10 13 1008.8 - - - - - - - - -
18/09:00am 27.4 WSW 10 12 1008.9 - - - - - - - - -
18/08:30am 27.2 WSW 11 14 1008.9 - - - - - - - - -
18/08:00am 27.3 SW 11 13 1008.7 - - - - - - - - -
18/07:30am 27.4 SW 12 14 1008.3 - - - - - - - - -
18/07:00am 27.3 SW 12 15 1008.2 - - - - - - - - -
18/06:30am 27.1 SW 15 18 1007.9 - - - - - - - - -
18/06:00am 26.8 WSW 13 16 1007.6 - - - - - - - - -
18/05:30am 26.9 WSW 14 17 1007.5 - - - - - - - - -
18/05:00am 26.8 WSW 15 19 1007.2 - - - - - - - - -
18/04:30am 26.8 WSW 18 20 1006.9 - - - - - - - - -
18/04:00am 26.8 WSW 17 21 1006.6 - - - - - - - - -
18/03:30am 26.9 WSW 18 21 1006.4 - - - - - - - - -
18/03:00am 27.0 WSW 18 21 1006.1 - - - - - - - - -
18/02:30am 27.0 W 15 19 1006.1 - - - - - - - - -
18/02:00am 27.1 W 14 18 1006.2 - - - - - - - - -
18/01:30am 27.1 W 14 17 1006.3 - - - - - - - - -
18/01:00am 27.2 W 12 16 1006.6 - - - - - - - - -
18/12:30am 27.2 W 13 18 1006.9 - - - - - - - - -
18/12:00am 27.2 W 11 16 1007.2 - - - - - - - - -
 
Date/Time
WST
Temp
°C
Wind Pressure Rain since
9am
mm
Weather Cloud Vis
km
Sea
Height
m
Swell
Dir  Spd
kts
Gust
kts
hPa Trend Height
m
Period
s
Dir
17/11:30pm 27.0 W 14 18 1007.6 - - - - - - - - -
17/11:00pm 27.0 W 11 15 1007.9 - - - - - - - - -
17/10:30pm 27.1 W 13 16 1008.0 - - - - - - - - -
17/10:00pm 27.1 W 13 15 1008.1 - - - - - - - - -
17/09:30pm 27.1 WNW 14 17 1007.9 - - - - - - - - -
17/09:00pm 27.1 W 14 17 1007.9 - - - - - - - - -
17/08:30pm 27.1 W 13 16 1007.8 - - - - - - - - -
17/08:00pm 27.1 W 15 19 1007.6 - - - - - - - - -
17/07:30pm 27.1 W 13 16 1007.3 - - - - - - - - -
17/07:00pm 27.3 W 15 20 1006.8 - - - - - - - - -
17/06:30pm 27.5 W 16 21 1006.3 - - - - - - - - -
17/06:00pm 27.7 W 16 20 1005.8 - - - - - - - - -
17/05:30pm 27.8 W 15 20 1005.5 - - - - - - - - -
17/05:00pm 27.6 W 18 22 1005.0 - - - - - - - - -
17/04:30pm 27.6 WNW 18 24 1004.8 - - - - - - - - -
17/04:00pm 27.5 WNW 20 23 1004.6 - - - - - - - - -
17/03:30pm 27.3 WNW 19 23 1004.6 - - - - - - - - -
17/03:00pm 27.2 W 18 22 1004.7 - - - - - - - - -
17/02:30pm 27.3 WNW 18 22 1004.9 - - - - - - - - -
17/02:00pm 27.0 WNW 17 22 1005.2 - - - - - - - - -
17/01:30pm 27.4 WNW 16 19 1005.4 - - - - - - - - -
17/01:00pm 27.0 WNW 16 19 1005.8 - - - - - - - - -
17/12:30pm 27.0 W 15 17 1006.1 - - - - - - - - -
17/12:00pm 27.2 WNW 14 18 1006.5 - - - - - - - - -
17/11:30am 26.8 WNW 13 16 1006.9 - - - - - - - - -
17/11:00am 26.8 WNW 12 17 1007.2 - - - - - - - - -
17/10:30am 27.0 W 12 14 1007.5 - - - - - - - - -
17/10:00am 27.0 WNW 11 13 1008.0 - - - - - - - - -
17/09:30am 27.2 W 10 12 1008.1 - - - - - - - - -
17/09:00am 27.1 W 10 14 1008.2 - - - - - - - - -
17/08:30am 27.1 WNW 7 9 1008.0 - - - - - - - - -
17/08:00am 27.0 W 4 8 1008.1 - - - - - - - - -
17/07:30am 27.0 SW 2 4 1007.8 - - - - - - - - -
17/07:00am 26.5 S 3 5 1007.5 - - - - - - - - -
17/06:30am 26.9 SW 7 9 1007.2 - - - - - - - - -
17/06:00am 26.8 WSW 7 9 1006.9 - - - - - - - - -
17/05:30am 26.7 WSW 7 9 1006.6 - - - - - - - - -
17/05:00am 26.8 WSW 8 10 1006.3 - - - - - - - - -
17/04:30am 26.9 WSW 9 11 1006.1 - - - - - - - - -
17/04:00am 26.9 W 8 11 1005.9 - - - - - - - - -
17/03:30am 27.0 WSW 11 13 1005.6 - - - - - - - - -
17/03:00am 26.9 WSW 11 13 1005.5 - - - - - - - - -
17/02:30am 27.0 WSW 11 13 1005.4 - - - - - - - - -
17/02:00am 27.1 WSW 13 15 1005.3 - - - - - - - - -
17/01:30am 27.3 WSW 13 15 1005.6 - - - - - - - - -
17/01:00am 27.5 WSW 13 15 1005.8 - - - - - - - - -
17/12:30am 27.2 W 13 17 1005.6 - - - - - - - - -
17/12:00am 27.0 W 11 14 1006.0 - - - - - - - - -
 
Date/Time
WST
Temp
°C
Wind Pressure Rain since
9am
mm
Weather Cloud Vis
km
Sea
Height
m
Swell
Dir  Spd
kts
Gust
kts
hPa Trend Height
m
Period
s
Dir
16/11:30pm 26.8 W 10 13 1006.4 - - - - - - - - -
16/11:00pm 26.7 W 10 12 1006.9 - - - - - - - - -
16/10:30pm 26.7 W 8 12 1007.3 - - - - - - - - -
16/10:00pm 26.8 W 7 10 1007.7 - - - - - - - - -
16/09:30pm 26.9 W 6 9 1007.7 - - - - - - - - -
16/09:00pm 26.9 WNW 9 11 1007.5 - - - - - - - - -
16/08:30pm 26.9 WNW 7 12 1007.3 - - - - - - - - -
16/08:00pm 27.0 WNW 6 9 1007.3 - - - - - - - - -
16/07:30pm 27.1 NW 5 10 1007.3 - - - - - - - - -
16/07:00pm 27.2 WNW 10 15 1006.9 - - - - - - - - -
16/06:30pm 27.2 W 12 17 1006.3 - - - - - - - - -
16/06:00pm 27.3 W 15 18 1005.6 - - - - - - - - -
16/05:30pm 27.4 W 16 20 1005.2 - - - - - - - - -
16/05:00pm 27.3 W 17 22 1004.9 - - - - - - - - -
16/04:30pm 27.2 W 19 24 1004.5 - - - - - - - - -
16/04:00pm 27.6 WNW 21 25 1004.4 - - - - - - - - -
16/03:30pm 27.7 W 20 23 1004.4 - - - - - - - - -
16/03:00pm 27.7 WNW 20 23 1004.6 - - - - - - - - -
16/02:30pm 28.2 WNW 18 24 1004.8 - - - - - - - - -
16/02:00pm 28.1 W 18 21 1005.1 - - - - - - - - -
16/01:30pm 28.2 W 17 21 1005.5 - - - - - - - - -
16/01:00pm 28.1 W 17 20 1005.8 - - - - - - - - -
16/12:30pm 27.9 WNW 16 19 1006.4 - - - - - - - - -
16/12:00pm 27.6 WNW 15 17 1007.0 - - - - - - - - -
16/11:30am 27.5 WNW 15 18 1007.4 - - - - - - - - -
16/11:00am 27.5 WNW 14 16 1008.0 - - - - - - - - -
16/10:30am 27.6 WNW 11 13 1008.4 - - - - - - - - -
16/10:00am 28.0 WNW 9 11 1008.5 - - - - - - - - -
16/09:30am 28.3 W 7 9 1008.6 - - - - - - - - -
16/09:00am 28.3 WSW 8 10 1008.8 - - - - - - - - -
16/08:30am 27.8 WSW 12 13 1008.9 - - - - - - - - -
16/08:00am 28.1 WSW 10 13 1009.1 - - - - - - - - -
16/07:30am 27.9 WSW 11 13 1008.9 - - - - - - - - -
16/07:00am 28.0 WSW 13 14 1008.7 - - - - - - - - -
16/06:30am 28.2 SW 9 11 1008.8 - - - - - - - - -
16/06:00am 27.9 WSW 8 10 1008.1 - - - - - - - - -
16/05:30am 27.8 W 13 16 1007.2 - - - - - - - - -
16/05:00am 27.9 W 14 18 1006.8 - - - - - - - - -
16/04:30am 28.0 WSW 14 17 1006.6 - - - - - - - - -
16/04:00am 27.9 WSW 11 13 1006.7 - - - - - - - - -
16/03:30am 27.9 WSW 12 14 1006.5 - - - - - - - - -
16/03:00am 28.1 W 10 13 1006.5 - - - - - - - - -
16/02:30am 28.1 W 8 11 1006.4 - - - - - - - - -
16/02:00am 28.2 W 8 11 1006.4 - - - - - - - - -
16/01:30am 28.3 W 5 8 1006.5 - - - - - - - - -
16/01:00am 28.6 W 8 9 1006.6 - - - - - - - - -
16/12:30am 28.6 W 6 8 1006.8 - - - - - - - - -
16/12:00am 28.3 NW 6 7 1007.0 - - - - - - - - -
 
Date/Time
WST
Temp
°C
Wind Pressure Rain since
9am
mm
Weather Cloud Vis
km
Sea
Height
m
Swell
Dir  Spd
kts
Gust
kts
hPa Trend Height
m
Period
s
Dir
15/11:30pm 28.5 W 7 9 1007.2 - - - - - - - - -
15/11:00pm 28.5 WSW 8 9 1007.5 - - - - - - - - -
15/10:30pm 28.5 SW 6 8 1007.9 - - - - - - - - -
15/10:00pm 28.0 SW 3 4 1008.3 - - - - - - - - -
15/09:30pm 28.2 WSW 8 10 1007.9 - - - - - - - - -
15/09:00pm 28.2 W 7 9 1007.5 - - - - - - - - -
15/08:30pm 28.1 W 6 8 1007.3 - - - - - - - - -
15/08:00pm 28.3 W 7 9 1007.1 - - - - - - - - -
15/07:30pm 28.2 WNW 6 8 1006.7 - - - - - - - - -

Other Formats:

Comma delimited format used in spreadsheet applications
http://www.bom.gov.au/fwo/IDW60701/IDW60701.95202.axf

JavaScript Object Notation format (JSON) in row-major order
http://www.bom.gov.au/fwo/IDW60701/IDW60701.95202.json